Time;durP1;ratioP1;P1;durP2;ratioP2;P2;SDS_P1;SDS_P2;PMS_P1;PMS_P2;Temp;Humidity;BMP_temperature;BMP_pressure;BME280_temperature;BME280_humidity;BME280_pressure;Samples;Min_cycle;Max_cycle;Signal;HPM_P1;HPM_P2
2022/11/06 00:00:36;;;;;;;15.80;6.73;;;8.30;99.90;;;;;;5094440;28;20410;-46
2022/11/06 00:03:03;;;;;;;12.27;6.50;;;8.00;99.90;;;;;;5095078;28;20498;-45
2022/11/06 00:08:25;;;;;;;13.47;6.97;;;8.40;99.90;;;;;;5095898;28;20561;-44
2022/11/06 00:10:52;;;;;;;12.00;6.73;;;8.50;99.90;;;;;;5101974;28;20402;-45
2022/11/06 00:13:18;;;;;;;10.30;7.13;;;8.60;99.90;;;;;;5100251;28;20436;-45
2022/11/06 00:15:45;;;;;;;11.30;7.13;;;8.70;99.90;;;;;;5101802;28;20436;-45
2022/11/06 00:18:12;;;;;;;11.10;6.70;;;8.50;99.90;;;;;;5100575;28;21049;-44
2022/11/06 00:20:38;;;;;;;13.80;6.77;;;8.40;99.90;;;;;;5101676;28;20411;-45
2022/11/06 00:23:05;;;;;;;9.93;6.97;;;8.30;99.90;;;;;;5101859;28;20434;-44
2022/11/06 00:25:33;;;;;;;10.77;7.07;;;8.30;99.90;;;;;;5095222;28;20439;-47
2022/11/06 00:27:59;;;;;;;9.10;6.40;;;8.50;99.90;;;;;;5076110;28;20467;-44
2022/11/06 00:30:26;;;;;;;19.53;7.20;;;8.40;99.90;;;;;;5093265;28;20404;-46
2022/11/06 00:32:52;;;;;;;13.47;7.33;;;8.20;99.90;;;;;;5076215;28;20483;-45
2022/11/06 00:35:19;;;;;;;17.67;7.27;;;8.30;99.90;;;;;;5094468;28;20942;-45
2022/11/06 00:37:45;;;;;;;10.53;7.13;;;8.30;99.90;;;;;;5094372;28;20979;-45
2022/11/06 00:40:13;;;;;;;18.47;7.87;;;8.30;99.90;;;;;;5093994;28;20896;-46
2022/11/06 00:42:41;;;;;;;18.40;7.43;;;8.10;99.90;;;;;;5094210;28;20492;-46
2022/11/06 00:45:09;;;;;;;13.77;7.63;;;8.40;99.90;;;;;;5094203;28;20923;-45
2022/11/06 00:47:36;;;;;;;11.77;7.40;;;8.10;99.90;;;;;;5094523;28;20437;-45
2022/11/06 00:50:02;;;;;;;15.53;7.77;;;8.10;99.90;;;;;;5093612;28;20437;-46
2022/11/06 00:52:30;;;;;;;17.13;7.50;;;8.20;99.90;;;;;;5094277;28;20451;-45
2022/11/06 00:54:56;;;;;;;14.40;8.60;;;8.10;99.90;;;;;;5094029;28;20440;-46
2022/11/06 00:57:23;;;;;;;12.40;7.13;;;8.20;99.90;;;;;;5094432;28;20479;-45
2022/11/06 00:59:51;;;;;;;11.80;6.83;;;8.00;99.90;;;;;;5093875;28;20954;-44
2022/11/06 01:02:18;;;;;;;18.40;7.13;;;8.80;99.90;;;;;;5093663;28;20422;-45
2022/11/06 01:04:44;;;;;;;10.93;7.27;;;8.10;99.90;;;;;;5094957;28;20432;-46
2022/11/06 01:07:11;;;;;;;17.73;7.60;;;8.00;99.90;;;;;;5093649;28;20415;-45
2022/11/06 01:09:38;;;;;;;11.80;6.97;;;7.90;99.90;;;;;;5093622;28;20441;-46
2022/11/06 01:12:05;;;;;;;10.63;8.03;;;8.10;99.90;;;;;;5093929;28;20841;-45
2022/11/06 01:14:32;;;;;;;10.07;8.00;;;8.00;99.90;;;;;;5093658;28;20449;-45
2022/11/06 01:17:00;;;;;;;12.30;7.33;;;8.10;99.90;;;;;;5074953;28;20960;-46
2022/11/06 01:19:26;;;;;;;17.00;6.90;;;8.00;99.90;;;;;;5093354;28;20411;-45
2022/11/06 01:21:53;;;;;;;14.77;7.17;;;8.40;99.90;;;;;;5093365;28;20432;-45
2022/11/06 01:24:23;;;;;;;14.93;7.20;;;8.20;99.90;;;;;;5093198;28;20476;-44
2022/11/06 01:26:50;;;;;;;13.97;7.67;;;8.30;99.90;;;;;;5093442;28;20525;-44
2022/11/06 01:29:19;;;;;;;13.23;7.63;;;7.80;99.90;;;;;;5093072;28;20428;-46
2022/11/06 01:31:48;;;;;;;9.63;7.67;;;8.10;99.90;;;;;;5093132;28;20462;-45
2022/11/06 01:34:16;;;;;;;10.07;7.87;;;7.70;99.90;;;;;;5093107;28;20548;-43
2022/11/06 01:36:43;;;;;;;11.43;7.53;;;7.90;99.90;;;;;;5093100;28;20559;-46
2022/11/06 01:39:13;;;;;;;13.47;7.50;;;8.00;99.90;;;;;;5093339;28;20429;-45
2022/11/06 01:41:42;;;;;;;10.90;7.93;;;8.00;99.90;;;;;;5093439;28;20428;-45
2022/11/06 01:44:39;;;;;;;8.13;6.80;;;8.10;99.90;;;;;;5092961;28;20444;-44
2022/11/06 01:47:19;;;;;;;11.37;8.53;;;8.20;99.90;;;;;;5079563;28;20448;-46
2022/11/06 01:49:48;;;;;;;15.27;8.30;;;8.10;99.90;;;;;;5074696;28;20427;-45
2022/11/06 01:52:15;;;;;;;12.00;9.27;;;7.70;99.90;;;;;;5092652;28;20437;-44
2022/11/06 01:54:44;;;;;;;11.43;8.60;;;8.10;99.90;;;;;;5093289;28;20448;-44
2022/11/06 01:57:11;;;;;;;13.33;8.73;;;8.30;99.90;;;;;;5092902;28;20450;-44
2022/11/06 01:59:41;;;;;;;10.43;7.67;;;8.40;99.90;;;;;;5092421;28;20442;-44
2022/11/06 02:02:08;;;;;;;12.50;8.20;;;8.10;99.90;;;;;;5092965;28;20794;-45
2022/11/06 02:04:38;;;;;;;20.90;8.70;;;8.00;99.90;;;;;;5093755;28;20429;-44
2022/11/06 02:07:07;;;;;;;10.40;7.60;;;7.80;99.90;;;;;;5093680;28;20446;-45
2022/11/06 02:09:36;;;;;;;12.03;8.10;;;7.80;99.90;;;;;;5092826;28;20428;-44
2022/11/06 02:12:13;;;;;;;21.67;8.80;;;8.20;99.90;;;;;;5092569;28;20416;-45
2022/11/06 02:14:45;;;;;;;12.13;8.13;;;7.90;99.90;;;;;;5092507;28;20432;-44
2022/11/06 02:17:20;;;;;;;10.87;7.70;;;8.10;99.90;;;;;;5092753;28;20538;-45
2022/11/06 02:20:00;;;;;;;14.30;9.43;;;8.00;99.90;;;;;;5092378;28;20402;-45
2022/11/06 02:22:42;;;;;;;11.67;8.20;;;7.70;99.90;;;;;;5092545;28;20450;-46
2022/11/06 02:25:15;;;;;;;13.13;8.53;;;7.70;99.90;;;;;;5093151;28;20498;-45
2022/11/06 02:27:46;;;;;;;14.40;8.30;;;8.10;99.90;;;;;;5092841;28;20867;-45
2022/11/06 02:30:13;;;;;;;12.90;7.90;;;7.90;99.90;;;;;;5092704;28;20779;-46
2022/11/06 02:32:45;;;;;;;13.40;9.47;;;7.90;99.90;;;;;;5093927;28;20460;-44
2022/11/06 02:35:22;;;;;;;11.13;8.53;;;7.30;99.90;;;;;;5092174;28;20406;-44
2022/11/06 02:37:53;;;;;;;10.03;8.23;;;7.90;99.90;;;;;;5092175;28;20461;-45
2022/11/06 02:40:21;;;;;;;12.90;8.87;;;8.20;99.90;;;;;;5091849;28;20423;-44
2022/11/06 02:42:52;;;;;;;13.93;8.67;;;8.00;99.90;;;;;;5092242;28;20431;-44
2022/11/06 02:45:21;;;;;;;14.17;8.77;;;8.00;99.90;;;;;;5092640;28;20768;-46
2022/11/06 02:47:53;;;;;;;12.43;8.57;;;7.90;99.90;;;;;;5097341;28;20433;-46
2022/11/06 02:50:23;;;;;;;14.57;9.27;;;7.40;99.90;;;;;;5098116;28;20410;-46
2022/11/06 02:52:55;;;;;;;10.30;8.20;;;7.40;99.90;;;;;;5098510;28;20462;-47
2022/11/06 02:55:25;;;;;;;10.30;8.20;;;8.00;99.90;;;;;;5098516;28;20808;-45
2022/11/06 02:57:57;;;;;;;14.33;9.10;;;7.80;99.90;;;;;;5098103;28;20447;-46
2022/11/06 03:00:24;;;;;;;20.67;9.43;;;8.20;99.90;;;;;;5098113;28;20408;-45
2022/11/06 03:02:55;;;;;;;15.63;8.80;;;8.00;99.90;;;;;;5099026;28;20499;-45
2022/11/06 03:05:27;;;;;;;15.20;8.27;;;8.20;99.90;;;;;;5099773;28;20436;-45
2022/11/06 03:08:02;;;;;;;15.77;8.90;;;7.70;99.90;;;;;;5098473;28;20927;-44
2022/11/06 03:10:32;;;;;;;18.10;9.67;;;7.90;99.90;;;;;;5098403;28;20402;-45
2022/11/06 03:13:08;;;;;;;9.87;8.30;;;7.90;99.90;;;;;;5099308;28;20455;-45
2022/11/06 03:15:39;;;;;;;11.20;9.17;;;7.50;99.90;;;;;;5098667;28;20414;-46
2022/11/06 03:18:11;;;;;;;17.80;10.03;;;7.50;99.90;;;;;;5097701;28;20504;-46
2022/11/06 03:20:42;;;;;;;11.60;8.07;;;7.30;99.90;;;;;;5098104;28;20436;-45
2022/11/06 03:23:13;;;;;;;15.57;8.60;;;7.80;99.90;;;;;;5098444;28;20531;-45
2022/11/06 03:25:46;;;;;;;13.13;9.27;;;8.00;99.90;;;;;;5098898;28;20414;-45
2022/11/06 03:28:21;;;;;;;13.97;8.70;;;7.80;99.90;;;;;;5098961;28;20421;-46
2022/11/06 03:30:52;;;;;;;15.73;8.80;;;7.80;99.90;;;;;;5098273;28;20497;-44
2022/11/06 03:33:23;;;;;;;18.07;8.63;;;7.40;99.90;;;;;;5097550;28;20822;-45
2022/11/06 03:35:54;;;;;;;16.50;9.90;;;7.80;99.90;;;;;;5093226;28;20420;-47
2022/11/06 03:38:27;;;;;;;12.73;8.23;;;7.70;99.90;;;;;;5091615;28;20788;-44
2022/11/06 03:40:58;;;;;;;13.43;8.53;;;7.90;99.90;;;;;;5091982;28;20428;-45
2022/11/06 03:43:31;;;;;;;12.40;9.43;;;7.50;99.90;;;;;;5091801;28;20788;-45
2022/11/06 03:46:01;;;;;;;12.87;9.00;;;7.50;99.90;;;;;;5091759;28;20388;-47
2022/11/06 03:48:33;;;;;;;13.60;8.40;;;7.00;99.90;;;;;;5091506;28;20460;-44
2022/11/06 03:51:05;;;;;;;12.47;10.03;;;7.70;99.90;;;;;;5091388;28;20404;-44
2022/11/06 03:53:36;;;;;;;13.80;9.17;;;7.80;99.90;;;;;;5073060;28;20536;-45
2022/11/06 03:56:08;;;;;;;21.63;9.87;;;7.50;99.90;;;;;;5091036;28;20457;-44
2022/11/06 03:58:39;;;;;;;15.33;9.10;;;7.40;99.90;;;;;;5090982;28;20438;-45
2022/11/06 04:01:09;;;;;;;14.63;9.03;;;7.60;99.90;;;;;;5091163;28;20888;-44
2022/11/06 04:03:41;;;;;;;20.43;9.57;;;7.70;99.90;;;;;;5091220;28;20803;-44
2022/11/06 04:06:12;;;;;;;12.43;8.67;;;7.40;99.90;;;;;;5094997;28;20767;-45
2022/11/06 04:14:16;;;;;;;14.20;9.77;;;7.50;99.90;;;;;;5094926;28;20563;-45
2022/11/06 04:16:46;;;;;;;14.27;9.47;;;7.30;99.90;;;;;;5094918;28;20407;-44
2022/11/06 04:19:15;;;;;;;10.73;9.13;;;7.30;99.90;;;;;;5076638;28;20839;-44
2022/11/06 04:22:06;;;;;;;13.70;9.10;;;7.50;99.90;;;;;;5094818;28;20930;-45
2022/11/06 04:27:51;;;;;;;21.83;9.30;;;6.70;99.90;;;;;;5076361;28;20809;-45
2022/11/06 04:30:19;;;;;;;13.37;10.10;;;7.40;99.90;;;;;;5094421;28;20402;-44
2022/11/06 04:33:01;;;;;;;10.13;9.13;;;7.50;99.90;;;;;;5094970;28;20581;-47
2022/11/06 04:35:37;;;;;;;9.80;8.80;;;7.30;99.90;;;;;;5094282;28;20414;-49
2022/11/06 04:38:09;;;;;;;15.97;9.23;;;7.20;99.90;;;;;;5094250;28;20564;-48
2022/11/06 04:40:46;;;;;;;12.20;9.17;;;7.40;99.90;;;;;;5094073;28;20431;-48
2022/11/06 04:43:19;;;;;;;11.30;9.10;;;7.30;99.90;;;;;;5094108;28;20458;-47
2022/11/06 04:45:51;;;;;;;13.40;9.23;;;7.40;99.90;;;;;;5094106;28;20409;-47
2022/11/06 04:48:19;;;;;;;14.50;9.07;;;7.30;99.90;;;;;;5093683;28;20902;-48
2022/11/06 04:50:50;;;;;;;14.50;9.10;;;7.40;99.90;;;;;;5093752;28;20401;-48
2022/11/06 04:53:18;;;;;;;12.43;7.70;;;7.30;99.90;;;;;;5093818;28;20436;-49
2022/11/06 04:55:47;;;;;;;16.23;9.33;;;7.30;99.90;;;;;;5093909;28;20412;-48
2022/11/06 04:58:14;;;;;;;14.70;9.43;;;7.20;99.90;;;;;;5093665;28;20445;-48
2022/11/06 05:00:45;;;;;;;15.17;10.13;;;7.40;99.90;;;;;;5093045;28;20434;-48
2022/11/06 05:03:13;;;;;;;12.73;8.03;;;7.40;99.90;;;;;;5093577;28;20462;-48
2022/11/06 05:05:40;;;;;;;13.30;9.47;;;7.30;99.90;;;;;;5075372;28;20430;-48
2022/11/06 05:08:12;;;;;;;12.30;9.60;;;7.20;99.90;;;;;;5093652;28;20498;-47
2022/11/06 05:10:38;;;;;;;13.57;9.70;;;7.20;99.90;;;;;;5093238;28;20761;-49
2022/11/06 05:13:05;;;;;;;11.93;8.67;;;7.00;99.90;;;;;;5093473;28;20455;-48
2022/11/06 05:15:31;;;;;;;10.97;8.33;;;7.00;99.90;;;;;;5093046;28;20410;-49
2022/11/06 05:17:58;;;;;;;12.27;9.47;;;6.50;99.90;;;;;;5093447;28;20441;-49
2022/11/06 05:20:26;;;;;;;12.13;8.90;;;7.00;99.90;;;;;;5093221;28;20828;-48
2022/11/06 05:22:59;;;;;;;13.80;9.90;;;7.20;99.90;;;;;;5093319;28;20441;-47
2022/11/06 05:25:27;;;;;;;15.30;8.97;;;6.90;99.90;;;;;;5093678;28;20446;-47
2022/11/06 05:27:53;;;;;;;13.33;9.37;;;7.00;99.90;;;;;;5093194;28;20410;-48
2022/11/06 05:30:20;;;;;;;18.37;9.27;;;6.90;99.90;;;;;;5092729;28;20409;-48
2022/11/06 05:32:47;;;;;;;13.63;9.00;;;6.80;99.90;;;;;;5092965;28;20456;-48
2022/11/06 05:35:14;;;;;;;13.63;8.63;;;6.40;99.90;;;;;;5093151;28;20412;-48
2022/11/06 05:37:42;;;;;;;14.60;9.47;;;7.20;99.90;;;;;;5093040;28;20413;-48
2022/11/06 05:40:10;;;;;;;13.63;9.60;;;6.30;99.90;;;;;;5092676;28;20434;-48
2022/11/06 05:42:37;;;;;;;18.20;10.00;;;7.10;99.90;;;;;;5092802;28;20803;-49
2022/11/06 05:45:04;;;;;;;15.50;9.77;;;7.00;99.90;;;;;;5092956;28;20429;-49
2022/11/06 05:47:31;;;;;;;13.53;9.40;;;6.90;99.90;;;;;;5092642;28;20418;-47
2022/11/06 05:49:57;;;;;;;15.13;9.13;;;6.70;99.90;;;;;;5092440;28;20431;-49
2022/11/06 05:52:24;;;;;;;12.03;9.13;;;7.10;99.90;;;;;;5092719;28;20462;-48
2022/11/06 05:54:52;;;;;;;14.00;9.80;;;6.80;99.90;;;;;;5092706;28;20438;-49
2022/11/06 05:57:19;;;;;;;12.30;9.00;;;6.80;99.90;;;;;;5092660;28;20454;-49
2022/11/06 05:59:45;;;;;;;12.50;9.50;;;6.90;99.90;;;;;;5092278;28;20453;-48
2022/11/06 06:02:12;;;;;;;16.23;10.80;;;6.70;99.90;;;;;;5092437;28;20401;-48
2022/11/06 06:04:38;;;;;;;13.57;9.90;;;6.80;99.90;;;;;;5074357;28;20429;-48
2022/11/06 06:07:05;;;;;;;11.97;10.23;;;6.60;99.90;;;;;;5092407;28;20416;-48
2022/11/06 06:09:32;;;;;;;14.20;10.57;;;6.90;99.90;;;;;;5091975;28;20760;-48
2022/11/06 06:12:00;;;;;;;20.00;12.20;;;6.80;99.90;;;;;;5092321;28;20883;-48
2022/11/06 06:14:27;;;;;;;11.73;10.43;;;6.90;99.90;;;;;;5092318;28;20437;-47
2022/11/06 06:16:53;;;;;;;16.77;10.47;;;7.40;99.90;;;;;;5092233;28;20405;-49
2022/11/06 06:19:20;;;;;;;15.30;9.50;;;6.80;99.90;;;;;;5091815;28;20454;-47
2022/11/06 06:21:46;;;;;;;12.40;9.70;;;6.40;99.90;;;;;;5092266;28;20406;-48
2022/11/06 06:24:13;;;;;;;11.87;9.90;;;6.80;99.90;;;;;;5092196;28;21001;-49
2022/11/06 06:26:40;;;;;;;13.23;9.80;;;6.90;99.90;;;;;;5092105;28;20937;-50
2022/11/06 06:29:08;;;;;;;12.97;10.10;;;6.80;99.90;;;;;;5091718;28;20444;-50
2022/11/06 06:31:34;;;;;;;13.43;8.83;;;6.90;99.90;;;;;;5091993;28;20409;-50
2022/11/06 06:34:01;;;;;;;13.40;9.10;;;7.30;99.90;;;;;;5092094;28;20759;-47
2022/11/06 06:36:28;;;;;;;13.20;9.57;;;6.70;99.90;;;;;;5091784;28;20410;-47
2022/11/06 06:38:54;;;;;;;12.30;9.80;;;6.60;99.90;;;;;;5091490;28;20460;-49
2022/11/06 06:41:21;;;;;;;16.03;10.87;;;6.90;99.90;;;;;;5092041;28;20571;-48
2022/11/06 06:43:48;;;;;;;10.83;9.00;;;6.90;99.90;;;;;;5091723;28;20437;-48
2022/11/06 06:46:17;;;;;;;17.90;10.90;;;6.40;99.90;;;;;;5092027;28;20924;-48
2022/11/06 06:48:43;;;;;;;16.70;10.33;;;6.70;99.90;;;;;;5091483;28;20721;-48
2022/11/06 06:51:10;;;;;;;12.03;10.00;;;6.80;99.90;;;;;;5091593;28;20414;-49
2022/11/06 06:53:37;;;;;;;12.10;9.60;;;7.00;99.90;;;;;;5091709;28;20433;-47
2022/11/06 06:56:03;;;;;;;17.60;9.83;;;6.80;99.90;;;;;;5091791;28;20409;-48
2022/11/06 06:58:31;;;;;;;16.47;10.97;;;7.00;99.90;;;;;;5091078;28;20953;-48
2022/11/06 07:00:59;;;;;;;14.50;10.23;;;6.70;99.90;;;;;;5091700;28;20413;-49
2022/11/06 07:03:27;;;;;;;14.10;10.53;;;6.80;99.90;;;;;;5091521;28;20463;-49
2022/11/06 07:05:54;;;;;;;17.97;10.50;;;7.20;99.90;;;;;;5091484;28;20455;-49
2022/11/06 07:08:21;;;;;;;16.10;10.60;;;7.10;99.90;;;;;;5091373;28;20756;-48
2022/11/06 07:10:48;;;;;;;14.80;10.37;;;6.90;99.90;;;;;;5091517;28;20766;-48
2022/11/06 07:13:15;;;;;;;15.13;10.63;;;7.00;99.90;;;;;;5091217;28;20428;-49
2022/11/06 07:15:41;;;;;;;11.10;9.23;;;6.80;99.90;;;;;;5091590;28;20399;-48
2022/11/06 07:18:08;;;;;;;15.60;9.90;;;6.80;99.90;;;;;;5091266;28;20434;-49
2022/11/06 07:20:38;;;;;;;12.00;9.03;;;7.00;99.90;;;;;;5090783;28;20417;-49
2022/11/06 07:23:06;;;;;;;15.33;10.37;;;7.20;99.90;;;;;;5091119;28;20460;-48
2022/11/06 07:25:32;;;;;;;13.17;10.30;;;7.50;99.90;;;;;;5073143;28;20447;-48
2022/11/06 07:28:01;;;;;;;14.97;10.20;;;7.20;99.90;;;;;;5091350;28;20414;-47
2022/11/06 07:30:27;;;;;;;13.87;11.63;;;7.30;99.90;;;;;;5091123;28;20465;-47
2022/11/06 07:32:54;;;;;;;13.47;10.10;;;7.30;99.90;;;;;;5091302;28;20475;-48
2022/11/06 07:35:21;;;;;;;11.07;9.93;;;7.40;99.90;;;;;;5091191;28;20447;-49
2022/11/06 07:37:48;;;;;;;13.40;9.63;;;7.70;99.90;;;;;;5091335;28;20439;-49
2022/11/06 07:40:15;;;;;;;14.43;11.13;;;7.60;99.90;;;;;;5095146;28;20461;-48
2022/11/06 07:42:42;;;;;;;12.13;10.23;;;7.60;99.90;;;;;;5095552;28;20450;-49
2022/11/06 07:45:13;;;;;;;15.50;10.80;;;7.80;99.90;;;;;;5077206;28;20903;-47
2022/11/06 07:47:40;;;;;;;12.43;9.40;;;7.10;99.90;;;;;;5096086;28;20435;-49
2022/11/06 07:50:07;;;;;;;14.20;11.40;;;7.40;99.90;;;;;;5095281;28;20410;-48
2022/11/06 07:52:33;;;;;;;13.83;10.40;;;7.50;99.90;;;;;;5095462;28;20443;-48
2022/11/06 07:55:01;;;;;;;14.70;10.57;;;7.80;99.90;;;;;;5095161;28;20407;-48
2022/11/06 07:57:28;;;;;;;17.20;10.27;;;7.70;99.90;;;;;;5095158;28;20825;-48
2022/11/06 07:59:54;;;;;;;14.57;10.33;;;7.70;99.90;;;;;;5094197;28;20476;-48
2022/11/06 08:02:21;;;;;;;17.50;12.30;;;7.90;99.90;;;;;;5094790;28;20412;-48
2022/11/06 08:04:48;;;;;;;12.57;9.97;;;7.80;99.90;;;;;;5095013;28;20414;-50
2022/11/06 08:07:14;;;;;;;15.13;11.10;;;8.00;99.90;;;;;;5094808;28;20407;-47
2022/11/06 08:09:41;;;;;;;16.80;11.63;;;8.20;99.90;;;;;;5094309;28;20424;-47
2022/11/06 08:12:09;;;;;;;14.80;10.80;;;8.10;99.90;;;;;;5094811;28;20409;-47
2022/11/06 08:14:35;;;;;;;16.10;10.90;;;7.50;99.90;;;;;;5094510;28;20436;-49
2022/11/06 08:17:02;;;;;;;15.77;11.37;;;7.90;99.90;;;;;;5094646;28;20432;-49
2022/11/06 08:19:29;;;;;;;13.23;9.80;;;7.70;99.90;;;;;;5094154;28;20482;-48
2022/11/06 08:21:56;;;;;;;12.87;10.70;;;8.10;99.90;;;;;;5094244;28;20403;-49
2022/11/06 08:24:22;;;;;;;15.20;11.43;;;7.90;99.90;;;;;;5076144;28;20499;-50
2022/11/06 08:26:49;;;;;;;16.03;10.30;;;7.90;99.90;;;;;;5094003;28;20784;-49
2022/11/06 08:29:17;;;;;;;13.47;10.63;;;8.20;99.90;;;;;;5094011;28;20404;-49
2022/11/06 08:31:43;;;;;;;17.33;10.37;;;8.10;99.90;;;;;;5094272;28;20780;-49
2022/11/06 08:34:10;;;;;;;13.53;11.27;;;7.90;99.90;;;;;;5094129;28;20472;-50
2022/11/06 08:36:38;;;;;;;13.60;10.80;;;8.40;99.90;;;;;;5094289;28;20473;-49
2022/11/06 08:39:05;;;;;;;13.80;10.40;;;8.10;99.90;;;;;;5093468;28;20464;-50
2022/11/06 08:41:31;;;;;;;16.00;10.33;;;8.70;99.90;;;;;;5093936;28;20487;-49
2022/11/06 08:43:58;;;;;;;18.57;11.80;;;8.40;99.90;;;;;;5093882;28;20434;-49
2022/11/06 08:46:26;;;;;;;29.17;10.90;;;8.40;99.90;;;;;;5093707;28;20404;-49
2022/11/06 08:48:52;;;;;;;14.70;11.00;;;8.40;99.90;;;;;;5093435;28;20744;-49
2022/11/06 08:51:19;;;;;;;14.63;9.47;;;7.90;99.90;;;;;;5093072;28;20435;-49
2022/11/06 08:53:46;;;;;;;12.70;9.87;;;8.10;99.90;;;;;;5093640;28;20431;-48
2022/11/06 08:56:13;;;;;;;13.70;9.70;;;8.60;99.90;;;;;;5093655;28;20774;-49
2022/11/06 08:58:39;;;;;;;15.93;9.93;;;8.50;99.90;;;;;;5093379;28;20411;-49
2022/11/06 09:01:06;;;;;;;14.33;10.20;;;8.00;99.90;;;;;;5093310;28;20918;-48
2022/11/06 09:03:34;;;;;;;12.10;8.90;;;8.70;99.90;;;;;;5093637;28;20453;-49
2022/11/06 09:06:01;;;;;;;13.60;10.60;;;8.40;99.90;;;;;;5093316;28;20431;-49
2022/11/06 09:08:27;;;;;;;15.40;10.47;;;8.60;99.90;;;;;;5093102;28;20436;-49
2022/11/06 09:10:54;;;;;;;13.70;9.70;;;8.70;99.90;;;;;;5093490;28;20524;-49
2022/11/06 09:13:20;;;;;;;13.90;10.43;;;8.70;99.90;;;;;;5093448;28;20463;-49
2022/11/06 09:15:48;;;;;;;14.57;9.80;;;8.80;99.90;;;;;;5093281;28;20410;-50
2022/11/06 09:18:15;;;;;;;11.60;9.23;;;9.30;99.90;;;;;;5093126;28;20410;-49
2022/11/06 09:20:42;;;;;;;11.27;9.40;;;8.80;99.90;;;;;;5092648;28;20522;-49
2022/11/06 09:23:10;;;;;;;14.73;10.23;;;8.30;99.90;;;;;;5074628;28;20530;-50
2022/11/06 09:25:36;;;;;;;14.53;10.23;;;8.80;99.90;;;;;;5093064;28;20428;-48
2022/11/06 09:28:03;;;;;;;12.47;9.50;;;9.10;99.90;;;;;;5093239;28;20404;-48
2022/11/06 09:30:31;;;;;;;14.27;9.97;;;9.10;99.90;;;;;;5092825;28;20436;-49
2022/11/06 09:32:59;;;;;;;14.33;9.50;;;9.10;99.90;;;;;;5092669;28;20526;-48
2022/11/06 09:35:27;;;;;;;11.27;9.13;;;9.10;99.90;;;;;;5093041;28;20448;-49
2022/11/06 09:38:01;;;;;;;17.67;9.40;;;9.40;99.90;;;;;;5093387;28;20437;-49
2022/11/06 09:40:34;;;;;;;16.20;9.07;;;9.20;99.90;;;;;;5092542;28;21016;-50
2022/11/06 09:43:10;;;;;;;11.03;8.83;;;9.10;99.90;;;;;;5092895;28;20547;-50
2022/11/06 09:45:39;;;;;;;11.50;8.80;;;9.40;99.90;;;;;;5092884;28;20903;-49
2022/11/06 09:48:20;;;;;;;10.67;9.67;;;9.20;99.90;;;;;;5093461;28;20457;-49
2022/11/06 09:50:51;;;;;;;9.93;8.83;;;9.40;99.90;;;;;;5092495;28;20907;-49
2022/11/06 09:53:25;;;;;;;11.33;8.27;;;9.20;99.90;;;;;;5092823;28;20422;-48
2022/11/06 09:55:53;;;;;;;12.70;8.20;;;9.40;99.90;;;;;;5092338;28;20422;-49
2022/11/06 09:58:24;;;;;;;10.70;8.00;;;9.80;99.90;;;;;;5093150;28;20469;-49
2022/11/06 10:00:53;;;;;;;13.30;8.17;;;9.30;99.90;;;;;;5092736;28;20443;-48
2022/11/06 10:03:26;;;;;;;11.40;8.20;;;9.60;99.90;;;;;;5074161;28;20451;-49
2022/11/06 10:05:53;;;;;;;9.43;8.30;;;9.80;99.90;;;;;;5092877;28;20410;-49
2022/11/06 10:08:24;;;;;;;8.23;7.30;;;9.90;99.90;;;;;;5092770;28;20579;-49
2022/11/06 10:11:00;;;;;;;12.67;8.07;;;9.60;99.90;;;;;;5092477;28;20415;-49
2022/11/06 10:13:38;;;;;;;9.30;7.60;;;10.10;99.90;;;;;;5092212;28;20475;-48
2022/11/06 10:16:14;;;;;;;10.00;8.37;;;10.00;99.90;;;;;;5092381;28;20429;-49
2022/11/06 10:18:53;;;;;;;12.90;8.40;;;9.70;99.90;;;;;;5091905;28;20455;-49
2022/11/06 10:21:24;;;;;;;9.70;6.90;;;9.10;99.90;;;;;;5092417;28;20963;-50
2022/11/06 10:23:56;;;;;;;9.23;6.93;;;10.20;99.90;;;;;;5091955;28;20452;-49
2022/11/06 10:26:32;;;;;;;9.57;8.20;;;9.80;99.90;;;;;;5091914;28;20427;-51
2022/11/06 10:29:25;;;;;;;12.20;8.37;;;9.60;99.90;;;;;;5092166;28;20399;-49
2022/11/06 10:32:04;;;;;;;8.90;7.80;;;10.50;99.90;;;;;;5091994;28;20444;-49
2022/11/06 10:34:37;;;;;;;8.50;6.53;;;10.10;99.90;;;;;;5106251;22;20488;-49
2022/11/06 10:37:08;;;;;;;11.90;7.03;;;10.20;99.90;;;;;;5092503;28;20911;-48
2022/11/06 10:39:37;;;;;;;12.30;7.90;;;10.40;99.90;;;;;;5092040;28;20810;-49
2022/11/06 10:42:09;;;;;;;15.20;8.50;;;9.70;99.90;;;;;;5092168;28;20455;-49
2022/11/06 10:44:39;;;;;;;8.40;7.13;;;10.20;99.90;;;;;;5090758;28;20832;-48
2022/11/06 10:47:15;;;;;;;9.93;8.40;;;9.90;99.90;;;;;;5092136;28;20414;-49
2022/11/06 10:49:46;;;;;;;9.73;8.77;;;10.20;99.90;;;;;;5091775;28;20467;-49
2022/11/06 10:52:27;;;;;;;9.60;7.00;;;10.30;99.90;;;;;;5091902;28;20433;-49
2022/11/06 10:55:38;;;;;;;9.10;6.87;;;10.20;99.90;;;;;;5091984;28;20406;-49
2022/11/06 10:58:07;;;;;;;9.03;7.33;;;10.30;99.90;;;;;;5048395;28;20464;-49
2022/11/06 11:00:35;;;;;;;14.67;8.60;;;10.60;99.90;;;;;;5091760;28;20465;-50
2022/11/06 11:03:05;;;;;;;9.20;7.00;;;10.40;99.90;;;;;;5091648;28;20441;-50
2022/11/06 11:05:38;;;;;;;16.63;8.30;;;10.30;99.90;;;;;;5091887;28;20435;-50
2022/11/06 11:08:05;;;;;;;11.40;7.30;;;10.50;99.90;;;;;;5091748;28;20429;-49
2022/11/06 11:10:36;;;;;;;10.40;7.70;;;10.20;99.90;;;;;;5091566;28;20403;-49
2022/11/06 11:13:05;;;;;;;8.57;7.60;;;10.60;99.90;;;;;;5091426;28;20457;-50
2022/11/06 11:15:38;;;;;;;13.43;8.30;;;10.50;99.90;;;;;;5090528;28;20788;-49
2022/11/06 11:18:15;;;;;;;14.33;7.10;;;10.50;99.90;;;;;;5091677;28;20404;-50
2022/11/06 11:20:44;;;;;;;10.03;7.70;;;10.90;99.90;;;;;;5091025;28;21022;-48
2022/11/06 11:23:15;;;;;;;11.03;7.67;;;10.50;99.90;;;;;;5090574;28;20463;-48
2022/11/06 11:25:46;;;;;;;12.40;7.90;;;10.80;99.90;;;;;;5091721;28;20489;-48
2022/11/06 11:28:25;;;;;;;9.33;7.17;;;10.70;99.90;;;;;;5091392;28;20400;-48
2022/11/06 11:30:53;;;;;;;9.00;6.47;;;10.70;99.90;;;;;;5091682;28;20405;-48
2022/11/06 11:33:22;;;;;;;8.57;6.47;;;10.60;99.90;;;;;;5091143;28;20502;-49
2022/11/06 11:35:50;;;;;;;9.33;7.13;;;10.30;99.90;;;;;;5091640;28;20411;-49
2022/11/06 11:38:20;;;;;;;9.03;6.27;;;10.50;99.90;;;;;;5091572;28;20831;-48
2022/11/06 11:40:50;;;;;;;12.83;7.40;;;10.80;99.90;;;;;;5072454;28;20492;-48
2022/11/06 11:43:25;;;;;;;8.07;5.87;;;10.80;99.90;;;;;;5091323;28;20449;-48
2022/11/06 11:46:12;;;;;;;10.17;6.10;;;10.70;99.90;;;;;;5091322;28;20896;-48
2022/11/06 11:48:44;;;;;;;12.27;6.43;;;10.60;99.90;;;;;;5091086;28;20404;-49
2022/11/06 11:51:33;;;;;;;6.83;5.83;;;10.30;99.90;;;;;;5089947;28;20836;-48
2022/11/06 11:54:06;;;;;;;13.63;7.27;;;10.60;99.90;;;;;;5091067;28;20421;-49
2022/11/06 11:56:43;;;;;;;10.70;6.37;;;10.50;99.90;;;;;;5091536;28;20953;-50
2022/11/06 11:59:18;;;;;;;8.60;6.27;;;11.00;99.90;;;;;;5090948;28;20410;-49
2022/11/06 12:01:45;;;;;;;6.73;6.13;;;11.20;99.90;;;;;;5091430;28;20500;-49
2022/11/06 12:04:22;;;;;;;11.17;6.53;;;10.80;99.90;;;;;;5091213;28;20454;-50
2022/11/06 12:06:58;;;;;;;15.10;6.73;;;10.70;99.90;;;;;;5091378;28;20448;-49
2022/11/06 12:09:26;;;;;;;6.50;5.77;;;10.90;99.90;;;;;;5090900;28;20407;-50
2022/11/06 12:11:57;;;;;;;8.43;5.90;;;10.90;99.90;;;;;;5090994;28;20430;-50
2022/11/06 12:14:36;;;;;;;7.33;5.80;;;10.90;99.90;;;;;;5091294;28;20611;-49
2022/11/06 12:17:13;;;;;;;10.60;6.47;;;11.50;99.90;;;;;;5091830;28;20804;-50
2022/11/06 12:19:44;;;;;;;8.00;5.23;;;10.90;99.90;;;;;;5090664;28;20438;-49
2022/11/06 12:22:16;;;;;;;8.10;6.03;;;11.10;99.90;;;;;;5091163;28;20830;-49
2022/11/06 12:24:49;;;;;;;9.40;6.03;;;10.50;99.90;;;;;;5091226;28;20438;-49
2022/11/06 12:27:21;;;;;;;9.30;5.63;;;11.50;99.90;;;;;;5094809;28;20434;-48
2022/11/06 12:29:51;;;;;;;7.33;5.37;;;11.10;99.90;;;;;;5093718;28;20440;-50
2022/11/06 12:32:33;;;;;;;13.73;6.40;;;11.10;99.90;;;;;;5094642;28;20422;-48
2022/11/06 12:35:09;;;;;;;19.80;6.63;;;11.50;99.90;;;;;;5094293;28;20917;-49
2022/11/06 12:37:42;;;;;;;12.53;6.80;;;10.80;99.90;;;;;;5094587;28;20407;-49
2022/11/06 12:40:20;;;;;;;10.87;6.33;;;11.00;99.90;;;;;;5094179;28;20464;-48
2022/11/06 12:43:00;;;;;;;16.03;6.70;;;11.00;99.90;;;;;;5094218;28;20757;-49
2022/11/06 12:45:39;;;;;;;11.27;6.50;;;11.40;99.90;;;;;;5075928;28;20958;-49
2022/11/06 12:48:13;;;;;;;7.40;6.67;;;11.30;99.90;;;;;;5093833;28;20465;-48
2022/11/06 12:50:44;;;;;;;10.47;6.43;;;11.60;99.90;;;;;;5093844;28;20775;-48
2022/11/06 12:53:22;;;;;;;6.67;5.63;;;11.50;99.90;;;;;;5093940;28;20449;-48
2022/11/06 12:55:55;;;;;;;8.00;5.03;;;10.90;99.90;;;;;;5093500;28;20437;-49
2022/11/06 12:58:41;;;;;;;6.97;5.60;;;11.20;99.90;;;;;;5093712;28;20416;-49
2022/11/06 13:01:15;;;;;;;6.33;5.70;;;11.30;99.90;;;;;;5093708;28;20475;-48
2022/11/06 13:04:03;;;;;;;5.80;4.57;;;11.20;99.90;;;;;;5093665;28;20911;-49
2022/11/06 13:06:53;;;;;;;7.10;5.30;;;11.60;99.90;;;;;;5092410;28;20449;-49
2022/11/06 13:09:24;;;;;;;7.20;4.90;;;11.20;99.90;;;;;;5093792;28;20400;-49
2022/11/06 13:11:56;;;;;;;5.57;4.07;;;10.90;99.90;;;;;;5093520;28;20486;-49